sensor_id;sensor_type;location;lat;lon;timestamp;P1;durP1;ratioP1;P2;durP2;ratioP2
11837;SDS011;5978;51.020;6.764;2024-01-30T00:02:17;21.00;;;15.20;;
11837;SDS011;5978;51.020;6.764;2024-01-30T00:04:43;21.10;;;15.43;;
11837;SDS011;5978;51.020;6.764;2024-01-30T00:07:08;23.83;;;15.40;;
11837;SDS011;5978;51.020;6.764;2024-01-30T00:09:38;22.05;;;16.42;;
11837;SDS011;5978;51.020;6.764;2024-01-30T00:12:05;21.00;;;14.60;;
11837;SDS011;5978;51.020;6.764;2024-01-30T00:14:31;25.75;;;16.48;;
11837;SDS011;5978;51.020;6.764;2024-01-30T00:16:59;21.10;;;15.65;;
11837;SDS011;5978;51.020;6.764;2024-01-30T00:19:25;21.03;;;15.83;;
11837;SDS011;5978;51.020;6.764;2024-01-30T00:21:54;19.73;;;15.02;;
11837;SDS011;5978;51.020;6.764;2024-01-30T00:24:20;23.45;;;15.35;;
11837;SDS011;5978;51.020;6.764;2024-01-30T00:26:46;26.77;;;16.10;;
11837;SDS011;5978;51.020;6.764;2024-01-30T00:29:12;21.73;;;15.33;;
11837;SDS011;5978;51.020;6.764;2024-01-30T00:31:44;26.63;;;16.98;;
11837;SDS011;5978;51.020;6.764;2024-01-30T00:34:10;19.73;;;13.73;;
11837;SDS011;5978;51.020;6.764;2024-01-30T00:36:35;24.37;;;15.40;;
11837;SDS011;5978;51.020;6.764;2024-01-30T00:39:02;23.48;;;15.50;;
11837;SDS011;5978;51.020;6.764;2024-01-30T00:41:31;20.92;;;17.00;;
11837;SDS011;5978;51.020;6.764;2024-01-30T00:43:57;20.83;;;16.20;;
11837;SDS011;5978;51.020;6.764;2024-01-30T00:46:23;21.58;;;16.45;;
11837;SDS011;5978;51.020;6.764;2024-01-30T00:48:49;27.40;;;15.73;;
11837;SDS011;5978;51.020;6.764;2024-01-30T00:51:14;23.77;;;16.20;;
11837;SDS011;5978;51.020;6.764;2024-01-30T00:53:40;22.40;;;16.30;;
11837;SDS011;5978;51.020;6.764;2024-01-30T00:56:06;23.23;;;16.17;;
11837;SDS011;5978;51.020;6.764;2024-01-30T00:58:32;19.70;;;15.88;;
11837;SDS011;5978;51.020;6.764;2024-01-30T01:00:58;30.60;;;17.53;;
11837;SDS011;5978;51.020;6.764;2024-01-30T01:03:24;21.10;;;16.53;;
11837;SDS011;5978;51.020;6.764;2024-01-30T01:05:50;23.03;;;16.90;;
11837;SDS011;5978;51.020;6.764;2024-01-30T01:08:16;25.03;;;16.90;;
11837;SDS011;5978;51.020;6.764;2024-01-30T01:10:41;31.20;;;17.10;;
11837;SDS011;5978;51.020;6.764;2024-01-30T01:13:08;30.50;;;16.20;;
11837;SDS011;5978;51.020;6.764;2024-01-30T01:15:34;23.57;;;15.80;;
11837;SDS011;5978;51.020;6.764;2024-01-30T01:18:00;22.95;;;17.45;;
11837;SDS011;5978;51.020;6.764;2024-01-30T01:20:26;24.37;;;15.27;;
11837;SDS011;5978;51.020;6.764;2024-01-30T01:22:52;24.83;;;16.87;;
11837;SDS011;5978;51.020;6.764;2024-01-30T01:25:20;24.50;;;17.38;;
11837;SDS011;5978;51.020;6.764;2024-01-30T01:27:46;21.60;;;15.30;;
11837;SDS011;5978;51.020;6.764;2024-01-30T01:30:16;23.30;;;16.30;;
11837;SDS011;5978;51.020;6.764;2024-01-30T01:32:49;24.38;;;16.35;;
11837;SDS011;5978;51.020;6.764;2024-01-30T01:35:24;24.48;;;16.90;;
11837;SDS011;5978;51.020;6.764;2024-01-30T01:37:51;20.77;;;16.33;;
11837;SDS011;5978;51.020;6.764;2024-01-30T01:40:23;26.02;;;15.73;;
11837;SDS011;5978;51.020;6.764;2024-01-30T01:42:50;23.88;;;16.13;;
11837;SDS011;5978;51.020;6.764;2024-01-30T01:45:17;23.75;;;17.20;;
11837;SDS011;5978;51.020;6.764;2024-01-30T01:47:43;20.63;;;15.57;;
11837;SDS011;5978;51.020;6.764;2024-01-30T01:50:11;27.58;;;17.92;;
11837;SDS011;5978;51.020;6.764;2024-01-30T01:52:38;25.00;;;17.27;;
11837;SDS011;5978;51.020;6.764;2024-01-30T01:55:06;24.92;;;16.40;;
11837;SDS011;5978;51.020;6.764;2024-01-30T01:57:33;25.70;;;16.20;;
11837;SDS011;5978;51.020;6.764;2024-01-30T02:00:00;23.60;;;16.83;;
11837;SDS011;5978;51.020;6.764;2024-01-30T02:02:27;25.42;;;17.58;;
11837;SDS011;5978;51.020;6.764;2024-01-30T02:04:57;23.02;;;16.60;;
11837;SDS011;5978;51.020;6.764;2024-01-30T02:07:23;21.48;;;16.50;;
11837;SDS011;5978;51.020;6.764;2024-01-30T02:09:50;29.05;;;17.92;;
11837;SDS011;5978;51.020;6.764;2024-01-30T02:12:16;24.27;;;16.60;;
11837;SDS011;5978;51.020;6.764;2024-01-30T02:14:45;25.13;;;17.00;;
11837;SDS011;5978;51.020;6.764;2024-01-30T02:17:12;18.83;;;15.85;;
11837;SDS011;5978;51.020;6.764;2024-01-30T02:19:38;21.30;;;16.75;;
11837;SDS011;5978;51.020;6.764;2024-01-30T02:22:04;25.25;;;16.58;;
11837;SDS011;5978;51.020;6.764;2024-01-30T02:24:30;24.52;;;16.63;;
11837;SDS011;5978;51.020;6.764;2024-01-30T02:26:56;22.67;;;16.17;;
11837;SDS011;5978;51.020;6.764;2024-01-30T02:29:22;22.10;;;15.83;;
11837;SDS011;5978;51.020;6.764;2024-01-30T02:31:48;26.13;;;18.97;;
11837;SDS011;5978;51.020;6.764;2024-01-30T02:34:14;24.08;;;15.75;;
11837;SDS011;5978;51.020;6.764;2024-01-30T02:36:43;26.47;;;16.90;;
11837;SDS011;5978;51.020;6.764;2024-01-30T02:39:09;21.67;;;15.75;;
11837;SDS011;5978;51.020;6.764;2024-01-30T02:41:35;27.17;;;17.60;;
11837;SDS011;5978;51.020;6.764;2024-01-30T02:44:01;23.67;;;16.08;;
11837;SDS011;5978;51.020;6.764;2024-01-30T02:46:27;26.77;;;15.82;;
11837;SDS011;5978;51.020;6.764;2024-01-30T02:48:53;24.30;;;16.13;;
11837;SDS011;5978;51.020;6.764;2024-01-30T02:51:19;24.77;;;16.43;;
11837;SDS011;5978;51.020;6.764;2024-01-30T02:53:45;23.50;;;17.27;;
11837;SDS011;5978;51.020;6.764;2024-01-30T02:56:10;26.87;;;17.30;;
11837;SDS011;5978;51.020;6.764;2024-01-30T02:58:38;31.55;;;16.75;;
11837;SDS011;5978;51.020;6.764;2024-01-30T03:01:05;28.50;;;16.55;;
11837;SDS011;5978;51.020;6.764;2024-01-30T03:03:32;23.65;;;18.10;;
11837;SDS011;5978;51.020;6.764;2024-01-30T03:06:00;24.40;;;17.50;;
11837;SDS011;5978;51.020;6.764;2024-01-30T03:08:26;23.87;;;16.80;;
11837;SDS011;5978;51.020;6.764;2024-01-30T03:10:51;25.30;;;17.20;;
11837;SDS011;5978;51.020;6.764;2024-01-30T03:13:17;29.00;;;18.00;;
11837;SDS011;5978;51.020;6.764;2024-01-30T03:15:43;23.90;;;16.70;;
11837;SDS011;5978;51.020;6.764;2024-01-30T03:18:12;25.17;;;18.25;;
11837;SDS011;5978;51.020;6.764;2024-01-30T03:20:37;24.53;;;17.43;;
11837;SDS011;5978;51.020;6.764;2024-01-30T03:23:03;24.30;;;16.75;;
11837;SDS011;5978;51.020;6.764;2024-01-30T03:25:29;25.77;;;16.90;;
11837;SDS011;5978;51.020;6.764;2024-01-30T03:27:55;25.25;;;16.00;;
11837;SDS011;5978;51.020;6.764;2024-01-30T03:30:21;24.73;;;16.80;;
11837;SDS011;5978;51.020;6.764;2024-01-30T03:32:47;28.52;;;18.27;;
11837;SDS011;5978;51.020;6.764;2024-01-30T03:35:13;27.07;;;17.00;;
11837;SDS011;5978;51.020;6.764;2024-01-30T03:37:39;24.48;;;16.88;;
11837;SDS011;5978;51.020;6.764;2024-01-30T03:40:05;24.87;;;16.13;;
11837;SDS011;5978;51.020;6.764;2024-01-30T03:42:31;21.55;;;15.88;;
11837;SDS011;5978;51.020;6.764;2024-01-30T03:44:57;28.43;;;18.97;;
11837;SDS011;5978;51.020;6.764;2024-01-30T03:47:22;23.30;;;16.70;;
11837;SDS011;5978;51.020;6.764;2024-01-30T03:49:48;26.10;;;17.07;;
11837;SDS011;5978;51.020;6.764;2024-01-30T03:52:14;29.77;;;16.43;;
11837;SDS011;5978;51.020;6.764;2024-01-30T03:54:40;25.03;;;17.67;;
11837;SDS011;5978;51.020;6.764;2024-01-30T03:57:06;18.90;;;15.00;;
11837;SDS011;5978;51.020;6.764;2024-01-30T03:59:32;23.20;;;16.83;;
11837;SDS011;5978;51.020;6.764;2024-01-30T04:01:58;22.35;;;16.17;;
11837;SDS011;5978;51.020;6.764;2024-01-30T04:04:24;23.38;;;15.48;;
11837;SDS011;5978;51.020;6.764;2024-01-30T04:06:50;25.48;;;15.48;;
11837;SDS011;5978;51.020;6.764;2024-01-30T04:09:18;27.20;;;15.70;;
11837;SDS011;5978;51.020;6.764;2024-01-30T04:11:44;20.27;;;15.68;;
11837;SDS011;5978;51.020;6.764;2024-01-30T04:14:13;23.53;;;15.87;;
11837;SDS011;5978;51.020;6.764;2024-01-30T04:16:38;21.88;;;15.48;;
11837;SDS011;5978;51.020;6.764;2024-01-30T04:19:04;21.50;;;16.00;;
11837;SDS011;5978;51.020;6.764;2024-01-30T04:21:30;25.20;;;15.70;;
11837;SDS011;5978;51.020;6.764;2024-01-30T04:23:56;23.60;;;16.17;;
11837;SDS011;5978;51.020;6.764;2024-01-30T04:26:22;20.57;;;15.07;;
11837;SDS011;5978;51.020;6.764;2024-01-30T04:28:48;23.73;;;16.58;;
11837;SDS011;5978;51.020;6.764;2024-01-30T04:31:14;21.97;;;16.33;;
11837;SDS011;5978;51.020;6.764;2024-01-30T04:33:40;23.30;;;14.77;;
11837;SDS011;5978;51.020;6.764;2024-01-30T04:36:08;26.43;;;16.50;;
11837;SDS011;5978;51.020;6.764;2024-01-30T04:38:37;25.83;;;17.20;;
11837;SDS011;5978;51.020;6.764;2024-01-30T04:41:04;21.95;;;15.35;;
11837;SDS011;5978;51.020;6.764;2024-01-30T04:43:30;25.38;;;16.80;;
11837;SDS011;5978;51.020;6.764;2024-01-30T04:45:56;22.75;;;16.55;;
11837;SDS011;5978;51.020;6.764;2024-01-30T04:48:22;24.77;;;15.27;;
11837;SDS011;5978;51.020;6.764;2024-01-30T04:50:48;24.87;;;14.63;;
11837;SDS011;5978;51.020;6.764;2024-01-30T04:53:14;21.30;;;15.47;;
11837;SDS011;5978;51.020;6.764;2024-01-30T04:55:39;18.40;;;14.60;;
11837;SDS011;5978;51.020;6.764;2024-01-30T04:58:05;22.90;;;15.60;;
11837;SDS011;5978;51.020;6.764;2024-01-30T05:00:31;21.23;;;13.97;;
11837;SDS011;5978;51.020;6.764;2024-01-30T05:02:57;22.70;;;15.90;;
11837;SDS011;5978;51.020;6.764;2024-01-30T05:05:22;18.87;;;14.73;;
11837;SDS011;5978;51.020;6.764;2024-01-30T05:07:48;22.80;;;15.00;;
11837;SDS011;5978;51.020;6.764;2024-01-30T05:10:14;22.90;;;14.55;;
11837;SDS011;5978;51.020;6.764;2024-01-30T05:12:40;25.70;;;15.33;;
11837;SDS011;5978;51.020;6.764;2024-01-30T05:15:06;23.38;;;14.85;;
11837;SDS011;5978;51.020;6.764;2024-01-30T05:17:32;19.20;;;13.45;;
11837;SDS011;5978;51.020;6.764;2024-01-30T05:19:58;20.13;;;14.10;;
11837;SDS011;5978;51.020;6.764;2024-01-30T05:22:24;16.97;;;14.33;;
11837;SDS011;5978;51.020;6.764;2024-01-30T05:24:50;20.23;;;13.47;;
11837;SDS011;5978;51.020;6.764;2024-01-30T05:27:16;22.27;;;15.35;;
11837;SDS011;5978;51.020;6.764;2024-01-30T05:29:42;20.80;;;14.07;;
11837;SDS011;5978;51.020;6.764;2024-01-30T05:32:10;19.53;;;15.40;;
11837;SDS011;5978;51.020;6.764;2024-01-30T05:34:36;20.15;;;13.77;;
11837;SDS011;5978;51.020;6.764;2024-01-30T05:37:03;21.27;;;14.55;;
11837;SDS011;5978;51.020;6.764;2024-01-30T05:39:29;14.63;;;12.55;;
11837;SDS011;5978;51.020;6.764;2024-01-30T05:41:57;18.50;;;14.30;;
11837;SDS011;5978;51.020;6.764;2024-01-30T05:44:23;20.93;;;14.70;;
11837;SDS011;5978;51.020;6.764;2024-01-30T05:46:49;20.00;;;13.25;;
11837;SDS011;5978;51.020;6.764;2024-01-30T05:49:15;23.50;;;14.43;;
11837;SDS011;5978;51.020;6.764;2024-01-30T05:51:41;17.97;;;12.40;;
11837;SDS011;5978;51.020;6.764;2024-01-30T05:54:07;19.67;;;12.98;;
11837;SDS011;5978;51.020;6.764;2024-01-30T05:56:33;22.10;;;14.27;;
11837;SDS011;5978;51.020;6.764;2024-01-30T05:58:59;17.63;;;14.03;;
11837;SDS011;5978;51.020;6.764;2024-01-30T06:01:24;17.77;;;12.97;;
11837;SDS011;5978;51.020;6.764;2024-01-30T06:03:51;27.63;;;14.00;;
11837;SDS011;5978;51.020;6.764;2024-01-30T06:06:17;19.60;;;13.02;;
11837;SDS011;5978;51.020;6.764;2024-01-30T06:08:42;18.63;;;13.30;;
11837;SDS011;5978;51.020;6.764;2024-01-30T06:11:11;20.40;;;14.20;;
11837;SDS011;5978;51.020;6.764;2024-01-30T06:13:37;24.35;;;14.77;;
11837;SDS011;5978;51.020;6.764;2024-01-30T06:16:03;22.08;;;14.23;;
11837;SDS011;5978;51.020;6.764;2024-01-30T06:18:31;25.48;;;13.93;;
11837;SDS011;5978;51.020;6.764;2024-01-30T06:21:00;23.00;;;14.25;;
11837;SDS011;5978;51.020;6.764;2024-01-30T06:23:26;20.55;;;13.15;;
11837;SDS011;5978;51.020;6.764;2024-01-30T06:25:52;21.80;;;13.25;;
11837;SDS011;5978;51.020;6.764;2024-01-30T06:28:18;18.27;;;13.80;;
11837;SDS011;5978;51.020;6.764;2024-01-30T06:30:46;18.87;;;13.90;;
11837;SDS011;5978;51.020;6.764;2024-01-30T06:33:12;21.63;;;13.50;;
11837;SDS011;5978;51.020;6.764;2024-01-30T06:35:38;20.05;;;13.50;;
11837;SDS011;5978;51.020;6.764;2024-01-30T06:38:05;17.35;;;12.60;;
11837;SDS011;5978;51.020;6.764;2024-01-30T06:40:31;17.83;;;12.43;;
11837;SDS011;5978;51.020;6.764;2024-01-30T06:43:02;18.50;;;13.15;;
11837;SDS011;5978;51.020;6.764;2024-01-30T06:45:30;16.77;;;12.40;;
11837;SDS011;5978;51.020;6.764;2024-01-30T06:47:55;20.42;;;15.13;;
11837;SDS011;5978;51.020;6.764;2024-01-30T06:50:21;20.77;;;13.38;;
11837;SDS011;5978;51.020;6.764;2024-01-30T06:52:48;20.02;;;13.45;;
11837;SDS011;5978;51.020;6.764;2024-01-30T06:55:14;17.88;;;12.75;;
11837;SDS011;5978;51.020;6.764;2024-01-30T06:57:39;20.93;;;14.53;;
11837;SDS011;5978;51.020;6.764;2024-01-30T07:00:05;15.00;;;12.30;;
11837;SDS011;5978;51.020;6.764;2024-01-30T07:02:32;19.02;;;14.05;;
11837;SDS011;5978;51.020;6.764;2024-01-30T07:04:57;21.23;;;13.37;;
11837;SDS011;5978;51.020;6.764;2024-01-30T07:07:23;17.30;;;12.43;;
11837;SDS011;5978;51.020;6.764;2024-01-30T07:09:49;18.47;;;13.47;;
11837;SDS011;5978;51.020;6.764;2024-01-30T07:12:20;16.33;;;12.50;;
11837;SDS011;5978;51.020;6.764;2024-01-30T07:14:46;16.27;;;12.43;;
11837;SDS011;5978;51.020;6.764;2024-01-30T07:17:15;19.30;;;12.98;;
11837;SDS011;5978;51.020;6.764;2024-01-30T07:19:41;23.33;;;13.40;;
11837;SDS011;5978;51.020;6.764;2024-01-30T07:22:07;15.90;;;12.10;;
11837;SDS011;5978;51.020;6.764;2024-01-30T07:24:33;18.85;;;13.30;;
11837;SDS011;5978;51.020;6.764;2024-01-30T07:26:59;21.92;;;12.90;;
11837;SDS011;5978;51.020;6.764;2024-01-30T07:29:25;18.47;;;12.80;;
11837;SDS011;5978;51.020;6.764;2024-01-30T07:31:51;19.00;;;12.10;;
11837;SDS011;5978;51.020;6.764;2024-01-30T07:34:17;20.80;;;14.10;;
11837;SDS011;5978;51.020;6.764;2024-01-30T07:36:42;18.73;;;13.77;;
11837;SDS011;5978;51.020;6.764;2024-01-30T07:39:08;24.83;;;12.33;;
11837;SDS011;5978;51.020;6.764;2024-01-30T07:41:35;21.95;;;14.20;;
11837;SDS011;5978;51.020;6.764;2024-01-30T07:44:00;17.23;;;13.60;;
11837;SDS011;5978;51.020;6.764;2024-01-30T07:46:28;17.63;;;13.30;;
11837;SDS011;5978;51.020;6.764;2024-01-30T07:48:53;20.27;;;12.23;;
11837;SDS011;5978;51.020;6.764;2024-01-30T07:51:20;14.65;;;11.27;;
11837;SDS011;5978;51.020;6.764;2024-01-30T07:53:46;18.00;;;12.57;;
11837;SDS011;5978;51.020;6.764;2024-01-30T07:56:12;15.20;;;11.17;;
11837;SDS011;5978;51.020;6.764;2024-01-30T07:58:38;19.60;;;11.70;;
11837;SDS011;5978;51.020;6.764;2024-01-30T08:01:04;19.00;;;12.67;;
11837;SDS011;5978;51.020;6.764;2024-01-30T08:03:30;20.90;;;13.13;;
11837;SDS011;5978;51.020;6.764;2024-01-30T08:05:55;21.10;;;13.27;;
11837;SDS011;5978;51.020;6.764;2024-01-30T08:08:21;18.20;;;12.33;;
11837;SDS011;5978;51.020;6.764;2024-01-30T08:10:47;17.47;;;12.70;;
11837;SDS011;5978;51.020;6.764;2024-01-30T08:13:14;22.25;;;12.27;;
11837;SDS011;5978;51.020;6.764;2024-01-30T08:15:39;18.40;;;13.37;;
11837;SDS011;5978;51.020;6.764;2024-01-30T08:18:05;17.27;;;13.97;;
11837;SDS011;5978;51.020;6.764;2024-01-30T08:20:32;19.83;;;12.60;;
11837;SDS011;5978;51.020;6.764;2024-01-30T08:22:57;22.10;;;13.00;;
11837;SDS011;5978;51.020;6.764;2024-01-30T08:25:25;18.95;;;14.73;;
11837;SDS011;5978;51.020;6.764;2024-01-30T08:27:51;20.90;;;14.93;;
11837;SDS011;5978;51.020;6.764;2024-01-30T08:30:16;30.33;;;14.87;;
11837;SDS011;5978;51.020;6.764;2024-01-30T08:32:42;24.93;;;14.70;;
11837;SDS011;5978;51.020;6.764;2024-01-30T08:35:11;24.45;;;14.45;;
11837;SDS011;5978;51.020;6.764;2024-01-30T08:37:40;23.52;;;15.38;;
11837;SDS011;5978;51.020;6.764;2024-01-30T08:40:06;22.00;;;15.30;;
11837;SDS011;5978;51.020;6.764;2024-01-30T08:42:33;17.08;;;13.23;;
11837;SDS011;5978;51.020;6.764;2024-01-30T08:44:59;19.65;;;14.98;;
11837;SDS011;5978;51.020;6.764;2024-01-30T08:47:25;17.33;;;13.73;;
11837;SDS011;5978;51.020;6.764;2024-01-30T08:49:51;20.63;;;14.13;;
11837;SDS011;5978;51.020;6.764;2024-01-30T08:52:17;17.10;;;13.70;;
11837;SDS011;5978;51.020;6.764;2024-01-30T08:54:42;21.23;;;14.30;;
11837;SDS011;5978;51.020;6.764;2024-01-30T08:57:08;17.77;;;13.70;;
11837;SDS011;5978;51.020;6.764;2024-01-30T08:59:34;17.83;;;14.30;;
11837;SDS011;5978;51.020;6.764;2024-01-30T09:02:00;20.90;;;14.97;;
11837;SDS011;5978;51.020;6.764;2024-01-30T09:04:25;17.60;;;14.30;;
11837;SDS011;5978;51.020;6.764;2024-01-30T09:06:51;17.07;;;13.40;;
11837;SDS011;5978;51.020;6.764;2024-01-30T09:09:17;18.03;;;14.60;;
11837;SDS011;5978;51.020;6.764;2024-01-30T09:11:43;20.70;;;12.87;;
11837;SDS011;5978;51.020;6.764;2024-01-30T09:14:12;17.05;;;15.25;;
11837;SDS011;5978;51.020;6.764;2024-01-30T09:16:38;21.30;;;14.10;;
11837;SDS011;5978;51.020;6.764;2024-01-30T09:19:04;18.03;;;13.90;;
11837;SDS011;5978;51.020;6.764;2024-01-30T09:21:29;17.07;;;13.10;;
11837;SDS011;5978;51.020;6.764;2024-01-30T09:24:01;25.13;;;13.55;;
11837;SDS011;5978;51.020;6.764;2024-01-30T09:26:29;26.77;;;12.85;;
11837;SDS011;5978;51.020;6.764;2024-01-30T09:28:54;25.20;;;14.97;;
11837;SDS011;5978;51.020;6.764;2024-01-30T09:31:20;22.37;;;14.37;;
11837;SDS011;5978;51.020;6.764;2024-01-30T09:33:46;18.17;;;14.33;;
11837;SDS011;5978;51.020;6.764;2024-01-30T09:36:13;19.20;;;13.40;;
11837;SDS011;5978;51.020;6.764;2024-01-30T09:38:40;20.30;;;13.53;;
11837;SDS011;5978;51.020;6.764;2024-01-30T09:41:09;18.40;;;13.77;;
11837;SDS011;5978;51.020;6.764;2024-01-30T09:43:37;25.47;;;14.00;;
11837;SDS011;5978;51.020;6.764;2024-01-30T09:46:05;20.67;;;13.70;;
11837;SDS011;5978;51.020;6.764;2024-01-30T09:48:33;17.70;;;14.43;;
11837;SDS011;5978;51.020;6.764;2024-01-30T09:50:59;18.73;;;13.40;;
11837;SDS011;5978;51.020;6.764;2024-01-30T09:53:25;17.33;;;14.47;;
11837;SDS011;5978;51.020;6.764;2024-01-30T09:55:51;18.80;;;13.77;;
11837;SDS011;5978;51.020;6.764;2024-01-30T09:58:17;20.47;;;15.07;;
11837;SDS011;5978;51.020;6.764;2024-01-30T10:00:43;17.40;;;13.77;;
11837;SDS011;5978;51.020;6.764;2024-01-30T10:03:09;22.10;;;15.83;;
11837;SDS011;5978;51.020;6.764;2024-01-30T10:05:35;24.60;;;15.10;;
11837;SDS011;5978;51.020;6.764;2024-01-30T10:08:07;21.85;;;15.55;;
11837;SDS011;5978;51.020;6.764;2024-01-30T10:10:33;22.15;;;14.43;;
11837;SDS011;5978;51.020;6.764;2024-01-30T10:13:00;18.40;;;14.30;;
11837;SDS011;5978;51.020;6.764;2024-01-30T10:15:26;20.98;;;15.18;;
11837;SDS011;5978;51.020;6.764;2024-01-30T10:17:53;21.83;;;15.27;;
11837;SDS011;5978;51.020;6.764;2024-01-30T10:20:19;19.03;;;14.60;;
11837;SDS011;5978;51.020;6.764;2024-01-30T10:22:47;24.65;;;14.90;;
11837;SDS011;5978;51.020;6.764;2024-01-30T10:25:14;21.92;;;15.45;;
11837;SDS011;5978;51.020;6.764;2024-01-30T10:27:40;21.52;;;14.00;;
11837;SDS011;5978;51.020;6.764;2024-01-30T10:30:07;22.17;;;15.30;;
11837;SDS011;5978;51.020;6.764;2024-01-30T10:32:33;22.40;;;15.07;;
11837;SDS011;5978;51.020;6.764;2024-01-30T10:34:58;21.53;;;14.20;;
11837;SDS011;5978;51.020;6.764;2024-01-30T10:37:25;21.40;;;14.93;;
11837;SDS011;5978;51.020;6.764;2024-01-30T10:39:53;19.00;;;14.47;;
11837;SDS011;5978;51.020;6.764;2024-01-30T10:42:22;21.63;;;14.90;;
11837;SDS011;5978;51.020;6.764;2024-01-30T10:47:43;19.03;;;14.10;;
11837;SDS011;5978;51.020;6.764;2024-01-30T10:50:13;19.77;;;14.47;;
11837;SDS011;5978;51.020;6.764;2024-01-30T10:52:40;21.87;;;13.53;;
11837;SDS011;5978;51.020;6.764;2024-01-30T10:55:07;23.07;;;15.73;;
11837;SDS011;5978;51.020;6.764;2024-01-30T10:57:36;23.20;;;14.07;;
11837;SDS011;5978;51.020;6.764;2024-01-30T11:00:09;19.70;;;15.00;;
11837;SDS011;5978;51.020;6.764;2024-01-30T11:02:40;20.60;;;14.53;;
11837;SDS011;5978;51.020;6.764;2024-01-30T11:05:09;22.70;;;15.67;;
11837;SDS011;5978;51.020;6.764;2024-01-30T11:07:38;25.20;;;14.97;;
11837;SDS011;5978;51.020;6.764;2024-01-30T11:10:05;21.73;;;15.00;;
11837;SDS011;5978;51.020;6.764;2024-01-30T11:12:37;21.20;;;15.90;;
11837;SDS011;5978;51.020;6.764;2024-01-30T11:15:15;21.77;;;14.67;;
11837;SDS011;5978;51.020;6.764;2024-01-30T11:17:42;25.17;;;14.90;;
11837;SDS011;5978;51.020;6.764;2024-01-30T11:20:09;18.30;;;14.17;;
11837;SDS011;5978;51.020;6.764;2024-01-30T11:22:44;21.50;;;15.90;;
11837;SDS011;5978;51.020;6.764;2024-01-30T11:25:11;20.70;;;14.43;;
11837;SDS011;5978;51.020;6.764;2024-01-30T11:27:44;21.60;;;14.57;;
11837;SDS011;5978;51.020;6.764;2024-01-30T11:30:11;19.03;;;13.97;;
11837;SDS011;5978;51.020;6.764;2024-01-30T11:35:32;22.23;;;14.47;;
11837;SDS011;5978;51.020;6.764;2024-01-30T11:37:59;25.17;;;15.03;;
11837;SDS011;5978;51.020;6.764;2024-01-30T11:40:29;20.33;;;14.00;;
11837;SDS011;5978;51.020;6.764;2024-01-30T11:42:56;17.53;;;13.83;;
11837;SDS011;5978;51.020;6.764;2024-01-30T11:45:23;18.10;;;14.47;;
11837;SDS011;5978;51.020;6.764;2024-01-30T11:47:49;17.93;;;14.10;;
11837;SDS011;5978;51.020;6.764;2024-01-30T11:50:15;20.87;;;13.47;;
11837;SDS011;5978;51.020;6.764;2024-01-30T11:52:41;20.80;;;13.07;;
11837;SDS011;5978;51.020;6.764;2024-01-30T11:55:08;21.90;;;14.70;;
11837;SDS011;5978;51.020;6.764;2024-01-30T11:57:34;22.33;;;14.67;;
11837;SDS011;5978;51.020;6.764;2024-01-30T12:00:02;16.70;;;14.07;;
11837;SDS011;5978;51.020;6.764;2024-01-30T12:02:35;18.30;;;13.03;;
11837;SDS011;5978;51.020;6.764;2024-01-30T12:05:05;19.97;;;14.60;;
11837;SDS011;5978;51.020;6.764;2024-01-30T12:07:31;18.80;;;14.20;;
11837;SDS011;5978;51.020;6.764;2024-01-30T12:09:58;20.93;;;13.30;;
11837;SDS011;5978;51.020;6.764;2024-01-30T12:12:24;17.27;;;13.20;;
11837;SDS011;5978;51.020;6.764;2024-01-30T12:14:51;17.03;;;13.73;;
11837;SDS011;5978;51.020;6.764;2024-01-30T12:17:28;20.90;;;13.40;;
11837;SDS011;5978;51.020;6.764;2024-01-30T12:20:10;18.20;;;13.07;;
11837;SDS011;5978;51.020;6.764;2024-01-30T12:22:37;17.87;;;12.93;;
11837;SDS011;5978;51.020;6.764;2024-01-30T12:27:37;17.97;;;12.87;;
11837;SDS011;5978;51.020;6.764;2024-01-30T12:30:07;18.37;;;12.40;;
11837;SDS011;5978;51.020;6.764;2024-01-30T12:32:39;22.63;;;11.37;;
11837;SDS011;5978;51.020;6.764;2024-01-30T12:35:11;15.90;;;9.10;;
11837;SDS011;5978;51.020;6.764;2024-01-30T12:37:44;9.60;;;7.77;;
11837;SDS011;5978;51.020;6.764;2024-01-30T12:40:11;13.50;;;7.23;;
11837;SDS011;5978;51.020;6.764;2024-01-30T12:42:39;12.13;;;7.40;;
11837;SDS011;5978;51.020;6.764;2024-01-30T12:45:08;11.60;;;7.20;;
11837;SDS011;5978;51.020;6.764;2024-01-30T12:47:34;13.50;;;8.03;;
11837;SDS011;5978;51.020;6.764;2024-01-30T12:50:00;8.60;;;6.97;;
11837;SDS011;5978;51.020;6.764;2024-01-30T12:52:26;12.50;;;8.13;;
11837;SDS011;5978;51.020;6.764;2024-01-30T12:54:52;10.27;;;7.97;;
11837;SDS011;5978;51.020;6.764;2024-01-30T12:57:18;17.83;;;8.20;;
11837;SDS011;5978;51.020;6.764;2024-01-30T12:59:44;13.80;;;7.40;;
11837;SDS011;5978;51.020;6.764;2024-01-30T13:02:11;14.03;;;7.20;;
11837;SDS011;5978;51.020;6.764;2024-01-30T13:04:38;9.67;;;6.63;;
11837;SDS011;5978;51.020;6.764;2024-01-30T13:07:04;11.00;;;6.93;;
11837;SDS011;5978;51.020;6.764;2024-01-30T13:09:31;9.20;;;6.60;;
11837;SDS011;5978;51.020;6.764;2024-01-30T13:11:57;10.43;;;7.60;;
11837;SDS011;5978;51.020;6.764;2024-01-30T13:14:25;7.90;;;6.70;;
11837;SDS011;5978;51.020;6.764;2024-01-30T13:16:51;10.90;;;6.67;;
11837;SDS011;5978;51.020;6.764;2024-01-30T13:19:17;8.67;;;6.83;;
11837;SDS011;5978;51.020;6.764;2024-01-30T13:21:43;8.17;;;6.70;;
11837;SDS011;5978;51.020;6.764;2024-01-30T13:24:10;17.33;;;8.00;;
11837;SDS011;5978;51.020;6.764;2024-01-30T13:26:37;9.13;;;7.20;;
11837;SDS011;5978;51.020;6.764;2024-01-30T13:29:05;13.80;;;7.50;;
11837;SDS011;5978;51.020;6.764;2024-01-30T13:31:31;10.90;;;7.40;;
11837;SDS011;5978;51.020;6.764;2024-01-30T13:33:57;13.00;;;7.83;;
11837;SDS011;5978;51.020;6.764;2024-01-30T13:36:23;14.77;;;8.73;;
11837;SDS011;5978;51.020;6.764;2024-01-30T13:38:52;17.53;;;9.00;;
11837;SDS011;5978;51.020;6.764;2024-01-30T13:41:18;25.73;;;8.27;;
11837;SDS011;5978;51.020;6.764;2024-01-30T13:43:45;13.17;;;8.60;;
11837;SDS011;5978;51.020;6.764;2024-01-30T13:46:11;14.47;;;8.67;;
11837;SDS011;5978;51.020;6.764;2024-01-30T13:48:37;14.93;;;8.53;;
11837;SDS011;5978;51.020;6.764;2024-01-30T13:51:03;8.00;;;6.97;;
11837;SDS011;5978;51.020;6.764;2024-01-30T13:53:29;11.60;;;7.43;;
11837;SDS011;5978;51.020;6.764;2024-01-30T13:55:54;11.70;;;7.20;;
11837;SDS011;5978;51.020;6.764;2024-01-30T13:58:20;11.80;;;8.00;;
11837;SDS011;5978;51.020;6.764;2024-01-30T14:00:45;10.23;;;7.73;;
11837;SDS011;5978;51.020;6.764;2024-01-30T14:03:11;12.80;;;8.50;;
11837;SDS011;5978;51.020;6.764;2024-01-30T14:05:37;15.30;;;7.73;;
11837;SDS011;5978;51.020;6.764;2024-01-30T14:08:02;15.50;;;8.87;;
11837;SDS011;5978;51.020;6.764;2024-01-30T14:10:28;16.23;;;8.87;;
11837;SDS011;5978;51.020;6.764;2024-01-30T14:12:54;13.40;;;7.57;;
11837;SDS011;5978;51.020;6.764;2024-01-30T14:15:19;9.70;;;7.80;;
11837;SDS011;5978;51.020;6.764;2024-01-30T14:17:45;13.53;;;8.37;;
11837;SDS011;5978;51.020;6.764;2024-01-30T14:20:14;10.90;;;7.80;;
11837;SDS011;5978;51.020;6.764;2024-01-30T14:22:43;13.87;;;8.50;;
11837;SDS011;5978;51.020;6.764;2024-01-30T14:25:08;13.13;;;7.73;;
11837;SDS011;5978;51.020;6.764;2024-01-30T14:27:35;17.40;;;8.03;;
11837;SDS011;5978;51.020;6.764;2024-01-30T14:30:01;17.17;;;8.30;;
11837;SDS011;5978;51.020;6.764;2024-01-30T14:32:28;14.07;;;8.23;;
11837;SDS011;5978;51.020;6.764;2024-01-30T14:34:53;12.50;;;8.03;;
11837;SDS011;5978;51.020;6.764;2024-01-30T14:37:20;15.90;;;9.33;;
11837;SDS011;5978;51.020;6.764;2024-01-30T14:39:46;14.20;;;8.90;;
11837;SDS011;5978;51.020;6.764;2024-01-30T14:42:13;10.13;;;8.10;;